sensor_id;sensor_type;location;lat;lon;timestamp;pressure;altitude;pressure_sealevel;temperature;humidity
12777;BME280;6452;41.572;23.732;2023-12-20T00:01:04;95760.09;;;1.08;nan
12777;BME280;6452;41.572;23.732;2023-12-20T00:03:30;95804.84;;;1.36;nan
12777;BME280;6452;41.572;23.732;2023-12-20T00:05:57;95798.47;;;1.30;nan
12777;BME280;6452;41.572;23.732;2023-12-20T00:08:23;95708.72;;;0.84;nan
12777;BME280;6452;41.572;23.732;2023-12-20T00:10:50;95710.53;;;0.84;nan
12777;BME280;6452;41.572;23.732;2023-12-20T00:13:16;95761.16;;;1.13;nan
12777;BME280;6452;41.572;23.732;2023-12-20T00:15:43;95798.78;;;1.35;nan
12777;BME280;6452;41.572;23.732;2023-12-20T00:18:10;95804.56;;;1.31;nan
12777;BME280;6452;41.572;23.732;2023-12-20T00:20:36;95791.66;;;1.14;nan
12777;BME280;6452;41.572;23.732;2023-12-20T00:23:03;95786.19;;;1.16;nan
12777;BME280;6452;41.572;23.732;2023-12-20T00:25:34;95698.81;;;0.65;nan
12777;BME280;6452;41.572;23.732;2023-12-20T00:28:01;95698.41;;;0.68;nan
12777;BME280;6452;41.572;23.732;2023-12-20T00:30:28;95787.28;;;1.22;nan
12777;BME280;6452;41.572;23.732;2023-12-20T00:32:55;95778.97;;;1.18;nan
12777;BME280;6452;41.572;23.732;2023-12-20T00:35:22;95780.44;;;1.06;nan
12777;BME280;6452;41.572;23.732;2023-12-20T00:37:48;95792.25;;;1.16;nan
12777;BME280;6452;41.572;23.732;2023-12-20T00:40:15;95687.38;;;0.58;nan
12777;BME280;6452;41.572;23.732;2023-12-20T00:42:42;95688.84;;;0.60;nan
12777;BME280;6452;41.572;23.732;2023-12-20T00:45:09;95725.81;;;0.80;nan
12777;BME280;6452;41.572;23.732;2023-12-20T00:47:35;95778.00;;;1.04;nan
12777;BME280;6452;41.572;23.732;2023-12-20T00:50:07;95750.94;;;0.89;nan
12777;BME280;6452;41.572;23.732;2023-12-20T00:52:34;95736.94;;;0.82;nan
12777;BME280;6452;41.572;23.732;2023-12-20T00:55:04;95766.03;;;0.87;nan
12777;BME280;6452;41.572;23.732;2023-12-20T00:57:33;95770.13;;;0.90;nan
12777;BME280;6452;41.572;23.732;2023-12-20T01:00:04;95778.91;;;0.97;nan
12777;BME280;6452;41.572;23.732;2023-12-20T01:02:32;95766.69;;;1.04;nan
12777;BME280;6452;41.572;23.732;2023-12-20T01:04:58;95722.19;;;0.66;nan
12777;BME280;6452;41.572;23.732;2023-12-20T01:07:25;95755.75;;;1.00;nan
12777;BME280;6452;41.572;23.732;2023-12-20T01:09:52;95769.47;;;1.02;nan
12777;BME280;6452;41.572;23.732;2023-12-20T01:12:19;95758.09;;;0.95;nan
12777;BME280;6452;41.572;23.732;2023-12-20T01:14:46;95668.88;;;0.45;nan
12777;BME280;6452;41.572;23.732;2023-12-20T01:17:13;95745.81;;;0.66;nan
12777;BME280;6452;41.572;23.732;2023-12-20T01:19:40;95750.13;;;0.74;nan
12777;BME280;6452;41.572;23.732;2023-12-20T01:22:06;95710.19;;;0.43;nan
12777;BME280;6452;41.572;23.732;2023-12-20T01:24:33;95755.56;;;0.72;nan
12777;BME280;6452;41.572;23.732;2023-12-20T01:27:00;95712.97;;;0.26;nan
12777;BME280;6452;41.572;23.732;2023-12-20T01:29:27;95741.03;;;0.55;nan
12777;BME280;6452;41.572;23.732;2023-12-20T01:31:53;95661.53;;;-0.04;nan
12777;BME280;6452;41.572;23.732;2023-12-20T01:34:24;95690.84;;;0.14;nan
12777;BME280;6452;41.572;23.732;2023-12-20T01:36:50;95726.81;;;0.35;nan
12777;BME280;6452;41.572;23.732;2023-12-20T01:39:17;95715.44;;;0.43;nan
12777;BME280;6452;41.572;23.732;2023-12-20T01:41:43;95715.53;;;0.64;nan
12777;BME280;6452;41.572;23.732;2023-12-20T01:44:11;95708.81;;;0.61;nan
12777;BME280;6452;41.572;23.732;2023-12-20T01:46:41;95629.13;;;0.12;nan
12777;BME280;6452;41.572;23.732;2023-12-20T01:49:08;95709.38;;;0.57;nan
12777;BME280;6452;41.572;23.732;2023-12-20T01:51:36;95717.59;;;0.54;nan
12777;BME280;6452;41.572;23.732;2023-12-20T01:54:03;95712.69;;;0.51;nan
12777;BME280;6452;41.572;23.732;2023-12-20T01:56:31;95655.97;;;0.28;nan
12777;BME280;6452;41.572;23.732;2023-12-20T01:58:57;95697.25;;;0.56;nan
12777;BME280;6452;41.572;23.732;2023-12-20T02:01:24;95680.09;;;0.38;nan
12777;BME280;6452;41.572;23.732;2023-12-20T02:03:51;95635.78;;;0.29;nan
12777;BME280;6452;41.572;23.732;2023-12-20T02:06:18;95681.78;;;0.61;nan
12777;BME280;6452;41.572;23.732;2023-12-20T02:08:44;95626.25;;;0.21;nan
12777;BME280;6452;41.572;23.732;2023-12-20T02:11:11;95679.91;;;0.55;nan
12777;BME280;6452;41.572;23.732;2023-12-20T02:13:37;95598.41;;;0.06;nan
12777;BME280;6452;41.572;23.732;2023-12-20T02:16:04;95666.72;;;0.48;nan
12777;BME280;6452;41.572;23.732;2023-12-20T02:18:31;95677.28;;;0.55;nan
12777;BME280;6452;41.572;23.732;2023-12-20T02:20:57;95669.84;;;0.44;nan
12777;BME280;6452;41.572;23.732;2023-12-20T02:23:24;95687.59;;;0.27;nan
12777;BME280;6452;41.572;23.732;2023-12-20T02:25:51;95669.50;;;0.17;nan
12777;BME280;6452;41.572;23.732;2023-12-20T02:28:19;95664.91;;;0.19;nan
12777;BME280;6452;41.572;23.732;2023-12-20T02:30:45;95632.09;;;-0.06;nan
12777;BME280;6452;41.572;23.732;2023-12-20T02:33:12;95591.78;;;-0.34;nan
12777;BME280;6452;41.572;23.732;2023-12-20T02:35:43;95627.19;;;-0.38;nan
12777;BME280;6452;41.572;23.732;2023-12-20T02:38:10;95675.28;;;-0.02;nan
12777;BME280;6452;41.572;23.732;2023-12-20T02:40:37;95661.25;;;-0.24;nan
12777;BME280;6452;41.572;23.732;2023-12-20T02:43:04;95639.94;;;-0.21;nan
12777;BME280;6452;41.572;23.732;2023-12-20T02:45:30;95622.16;;;-0.63;nan
12777;BME280;6452;41.572;23.732;2023-12-20T02:47:57;95666.06;;;-0.35;nan
12777;BME280;6452;41.572;23.732;2023-12-20T02:50:27;95662.00;;;-0.15;nan
12777;BME280;6452;41.572;23.732;2023-12-20T02:52:54;95668.66;;;-0.13;nan
12777;BME280;6452;41.572;23.732;2023-12-20T02:55:21;95653.56;;;-0.25;nan
12777;BME280;6452;41.572;23.732;2023-12-20T02:57:48;95646.16;;;-0.36;nan
12777;BME280;6452;41.572;23.732;2023-12-20T03:00:15;95668.63;;;-0.27;nan
12777;BME280;6452;41.572;23.732;2023-12-20T03:02:41;95617.22;;;-0.58;nan
12777;BME280;6452;41.572;23.732;2023-12-20T03:05:08;95610.41;;;-0.67;nan
12777;BME280;6452;41.572;23.732;2023-12-20T03:07:37;95645.84;;;-0.42;nan
12777;BME280;6452;41.572;23.732;2023-12-20T03:10:08;95643.53;;;-0.36;nan
12777;BME280;6452;41.572;23.732;2023-12-20T03:12:35;95599.41;;;-0.62;nan
12777;BME280;6452;41.572;23.732;2023-12-20T03:15:02;95620.09;;;-0.53;nan
12777;BME280;6452;41.572;23.732;2023-12-20T03:17:28;95654.28;;;-0.31;nan
12777;BME280;6452;41.572;23.732;2023-12-20T03:19:55;95630.44;;;-0.36;nan
12777;BME280;6452;41.572;23.732;2023-12-20T03:22:21;95602.06;;;-0.48;nan
12777;BME280;6452;41.572;23.732;2023-12-20T03:24:48;95611.22;;;-0.44;nan
12777;BME280;6452;41.572;23.732;2023-12-20T03:27:15;95603.28;;;-0.73;nan
12777;BME280;6452;41.572;23.732;2023-12-20T03:29:45;95598.81;;;-0.87;nan
12777;BME280;6452;41.572;23.732;2023-12-20T03:32:12;95648.25;;;-0.55;nan
12777;BME280;6452;41.572;23.732;2023-12-20T03:34:39;95562.88;;;-0.93;nan
12777;BME280;6452;41.572;23.732;2023-12-20T03:37:09;95638.00;;;-0.42;nan
12777;BME280;6452;41.572;23.732;2023-12-20T03:39:36;95634.41;;;-0.63;nan
12777;BME280;6452;41.572;23.732;2023-12-20T03:42:03;95603.09;;;-0.71;nan
12777;BME280;6452;41.572;23.732;2023-12-20T03:44:30;95599.31;;;-0.92;nan
12777;BME280;6452;41.572;23.732;2023-12-20T03:46:57;95599.88;;;-0.96;nan
12777;BME280;6452;41.572;23.732;2023-12-20T03:49:24;95636.81;;;-0.54;nan
12777;BME280;6452;41.572;23.732;2023-12-20T03:51:50;95581.84;;;-0.91;nan
12777;BME280;6452;41.572;23.732;2023-12-20T03:54:16;95626.16;;;-0.52;nan
12777;BME280;6452;41.572;23.732;2023-12-20T03:56:43;95617.47;;;-0.67;nan
12777;BME280;6452;41.572;23.732;2023-12-20T03:59:10;95620.84;;;-0.44;nan
12777;BME280;6452;41.572;23.732;2023-12-20T04:01:36;95631.53;;;-0.68;nan
12777;BME280;6452;41.572;23.732;2023-12-20T04:04:03;95578.78;;;-1.17;nan
12777;BME280;6452;41.572;23.732;2023-12-20T04:06:30;95623.97;;;-0.86;nan
12777;BME280;6452;41.572;23.732;2023-12-20T04:08:57;95623.03;;;-0.93;nan
12777;BME280;6452;41.572;23.732;2023-12-20T04:11:24;95544.72;;;-1.32;nan
12777;BME280;6452;41.572;23.732;2023-12-20T04:13:51;95607.94;;;-0.83;nan
12777;BME280;6452;41.572;23.732;2023-12-20T04:16:17;95581.28;;;-1.01;nan
12777;BME280;6452;41.572;23.732;2023-12-20T04:18:44;95610.47;;;-0.75;nan
12777;BME280;6452;41.572;23.732;2023-12-20T04:21:11;95522.66;;;-1.52;nan
12777;BME280;6452;41.572;23.732;2023-12-20T04:23:37;95601.31;;;-1.16;nan
12777;BME280;6452;41.572;23.732;2023-12-20T04:26:04;95595.72;;;-1.13;nan
12777;BME280;6452;41.572;23.732;2023-12-20T04:28:32;95525.97;;;-1.59;nan
12777;BME280;6452;41.572;23.732;2023-12-20T04:31:02;95606.53;;;-1.16;nan
12777;BME280;6452;41.572;23.732;2023-12-20T04:33:29;95559.03;;;-1.51;nan
12777;BME280;6452;41.572;23.732;2023-12-20T04:35:55;95560.72;;;-1.58;nan
12777;BME280;6452;41.572;23.732;2023-12-20T04:38:26;95565.16;;;-1.59;nan
12777;BME280;6452;41.572;23.732;2023-12-20T04:40:53;95607.00;;;-1.13;nan
12777;BME280;6452;41.572;23.732;2023-12-20T04:43:19;95558.56;;;-1.24;nan
12777;BME280;6452;41.572;23.732;2023-12-20T04:45:46;95609.72;;;-1.06;nan
12777;BME280;6452;41.572;23.732;2023-12-20T04:48:13;95558.06;;;-1.27;nan
12777;BME280;6452;41.572;23.732;2023-12-20T04:50:39;95526.38;;;-1.47;nan
12777;BME280;6452;41.572;23.732;2023-12-20T04:53:05;95614.31;;;-0.86;nan
12777;BME280;6452;41.572;23.732;2023-12-20T04:55:31;95596.59;;;-0.98;nan
12777;BME280;6452;41.572;23.732;2023-12-20T04:57:58;95600.19;;;-0.99;nan
12777;BME280;6452;41.572;23.732;2023-12-20T05:00:24;95608.47;;;-1.10;nan
12777;BME280;6452;41.572;23.732;2023-12-20T05:02:51;95567.72;;;-1.28;nan
12777;BME280;6452;41.572;23.732;2023-12-20T05:05:17;95569.41;;;-1.35;nan
12777;BME280;6452;41.572;23.732;2023-12-20T05:07:44;95576.03;;;-1.24;nan
12777;BME280;6452;41.572;23.732;2023-12-20T05:10:11;95612.81;;;-1.03;nan
12777;BME280;6452;41.572;23.732;2023-12-20T05:12:41;95604.00;;;-1.02;nan
12777;BME280;6452;41.572;23.732;2023-12-20T05:15:11;95550.34;;;-1.43;nan
12777;BME280;6452;41.572;23.732;2023-12-20T05:17:37;95581.97;;;-1.30;nan
12777;BME280;6452;41.572;23.732;2023-12-20T05:20:09;95552.88;;;-1.58;nan
12777;BME280;6452;41.572;23.732;2023-12-20T05:22:36;95540.63;;;-1.58;nan
12777;BME280;6452;41.572;23.732;2023-12-20T05:25:07;95589.88;;;-1.15;nan
12777;BME280;6452;41.572;23.732;2023-12-20T05:27:34;95541.19;;;-1.39;nan
12777;BME280;6452;41.572;23.732;2023-12-20T05:30:06;95581.94;;;-1.07;nan
12777;BME280;6452;41.572;23.732;2023-12-20T05:32:32;95575.03;;;-1.00;nan
12777;BME280;6452;41.572;23.732;2023-12-20T05:34:59;95578.94;;;-0.96;nan
12777;BME280;6452;41.572;23.732;2023-12-20T05:37:25;95572.72;;;-0.95;nan
12777;BME280;6452;41.572;23.732;2023-12-20T05:39:52;95542.34;;;-1.42;nan
12777;BME280;6452;41.572;23.732;2023-12-20T05:42:19;95573.88;;;-1.21;nan
12777;BME280;6452;41.572;23.732;2023-12-20T05:44:46;95570.56;;;-1.14;nan
12777;BME280;6452;41.572;23.732;2023-12-20T05:47:12;95525.78;;;-1.57;nan
12777;BME280;6452;41.572;23.732;2023-12-20T05:49:39;95530.19;;;-1.58;nan
12777;BME280;6452;41.572;23.732;2023-12-20T05:52:09;95527.63;;;-1.66;nan
12777;BME280;6452;41.572;23.732;2023-12-20T05:54:40;95577.72;;;-1.31;nan
12777;BME280;6452;41.572;23.732;2023-12-20T05:57:10;95582.19;;;-1.17;nan
12777;BME280;6452;41.572;23.732;2023-12-20T05:59:37;95575.19;;;-1.16;nan
12777;BME280;6452;41.572;23.732;2023-12-20T06:02:03;95541.75;;;-1.52;nan
12777;BME280;6452;41.572;23.732;2023-12-20T06:04:30;95559.75;;;-1.34;nan
12777;BME280;6452;41.572;23.732;2023-12-20T06:06:57;95579.53;;;-1.32;nan
12777;BME280;6452;41.572;23.732;2023-12-20T06:09:28;95568.06;;;-1.08;nan
12777;BME280;6452;41.572;23.732;2023-12-20T06:11:54;95582.97;;;-1.08;nan
12777;BME280;6452;41.572;23.732;2023-12-20T06:14:21;95526.81;;;-1.21;nan
12777;BME280;6452;41.572;23.732;2023-12-20T06:16:48;95573.84;;;-0.75;nan
12777;BME280;6452;41.572;23.732;2023-12-20T06:19:14;95521.03;;;-0.93;nan
12777;BME280;6452;41.572;23.732;2023-12-20T06:21:41;95489.75;;;-1.01;nan
12777;BME280;6452;41.572;23.732;2023-12-20T06:24:07;95571.44;;;-0.62;nan
12777;BME280;6452;41.572;23.732;2023-12-20T06:26:35;95543.69;;;-0.86;nan
12777;BME280;6452;41.572;23.732;2023-12-20T06:29:02;95552.69;;;-0.65;nan
12777;BME280;6452;41.572;23.732;2023-12-20T06:31:28;95580.13;;;-0.47;nan
12777;BME280;6452;41.572;23.732;2023-12-20T06:33:55;95573.34;;;-0.56;nan
12777;BME280;6452;41.572;23.732;2023-12-20T06:36:23;95560.09;;;-0.40;nan
12777;BME280;6452;41.572;23.732;2023-12-20T06:38:50;95556.84;;;-0.12;nan
12777;BME280;6452;41.572;23.732;2023-12-20T06:41:17;95514.56;;;0.20;nan
12777;BME280;6452;41.572;23.732;2023-12-20T06:43:43;95583.81;;;1.26;nan
12777;BME280;6452;41.572;23.732;2023-12-20T06:46:10;95518.56;;;1.23;nan
12777;BME280;6452;41.572;23.732;2023-12-20T06:48:36;95511.75;;;1.56;nan
12777;BME280;6452;41.572;23.732;2023-12-20T06:51:02;95574.72;;;1.49;nan
12777;BME280;6452;41.572;23.732;2023-12-20T06:53:29;95558.91;;;1.43;nan
12777;BME280;6452;41.572;23.732;2023-12-20T06:55:55;95545.97;;;1.69;nan
12777;BME280;6452;41.572;23.732;2023-12-20T06:58:24;95522.28;;;1.97;nan
12777;BME280;6452;41.572;23.732;2023-12-20T07:00:50;95545.44;;;2.21;nan
12777;BME280;6452;41.572;23.732;2023-12-20T07:03:17;95533.81;;;2.50;nan
12777;BME280;6452;41.572;23.732;2023-12-20T07:05:44;95551.94;;;2.99;nan
12777;BME280;6452;41.572;23.732;2023-12-20T07:08:10;95545.69;;;3.46;nan
12777;BME280;6452;41.572;23.732;2023-12-20T07:10:37;95542.09;;;4.31;nan
12777;BME280;6452;41.572;23.732;2023-12-20T07:13:04;95497.16;;;4.00;nan
12777;BME280;6452;41.572;23.732;2023-12-20T07:15:31;95544.66;;;3.80;nan
12777;BME280;6452;41.572;23.732;2023-12-20T07:17:58;95522.63;;;4.26;nan
12777;BME280;6452;41.572;23.732;2023-12-20T07:20:26;95499.25;;;3.72;nan
12777;BME280;6452;41.572;23.732;2023-12-20T07:22:53;95492.09;;;3.99;nan
12777;BME280;6452;41.572;23.732;2023-12-20T07:25:19;95477.06;;;4.06;nan
12777;BME280;6452;41.572;23.732;2023-12-20T07:27:49;95513.81;;;4.52;nan
12777;BME280;6452;41.572;23.732;2023-12-20T07:30:16;95476.19;;;4.25;nan
12777;BME280;6452;41.572;23.732;2023-12-20T07:32:43;95475.75;;;4.28;nan
12777;BME280;6452;41.572;23.732;2023-12-20T07:35:10;95499.28;;;4.74;nan
12777;BME280;6452;41.572;23.732;2023-12-20T07:37:36;95513.91;;;4.70;nan
12777;BME280;6452;41.572;23.732;2023-12-20T07:40:07;95503.16;;;5.03;nan
12777;BME280;6452;41.572;23.732;2023-12-20T07:42:33;95475.22;;;4.89;nan
12777;BME280;6452;41.572;23.732;2023-12-20T07:45:05;95512.34;;;5.25;nan
12777;BME280;6452;41.572;23.732;2023-12-20T07:47:32;95493.75;;;4.82;nan
12777;BME280;6452;41.572;23.732;2023-12-20T07:49:58;95502.00;;;4.61;nan
12777;BME280;6452;41.572;23.732;2023-12-20T07:52:26;95491.50;;;4.41;nan
12777;BME280;6452;41.572;23.732;2023-12-20T07:54:52;95453.44;;;4.30;nan
12777;BME280;6452;41.572;23.732;2023-12-20T07:57:18;95505.16;;;4.38;nan
12777;BME280;6452;41.572;23.732;2023-12-20T07:59:45;95419.41;;;4.16;nan
12777;BME280;6452;41.572;23.732;2023-12-20T08:02:11;95499.59;;;4.53;nan
12777;BME280;6452;41.572;23.732;2023-12-20T08:04:38;95487.88;;;4.80;nan
12777;BME280;6452;41.572;23.732;2023-12-20T08:07:04;95493.09;;;5.11;nan
12777;BME280;6452;41.572;23.732;2023-12-20T08:09:31;95491.06;;;5.63;nan
12777;BME280;6452;41.572;23.732;2023-12-20T08:11:58;95491.31;;;5.37;nan
12777;BME280;6452;41.572;23.732;2023-12-20T08:14:25;95495.34;;;5.15;nan
12777;BME280;6452;41.572;23.732;2023-12-20T08:16:52;95483.34;;;4.87;nan
12777;BME280;6452;41.572;23.732;2023-12-20T08:19:22;95490.28;;;4.44;nan
12777;BME280;6452;41.572;23.732;2023-12-20T08:21:49;95498.28;;;4.68;nan
12777;BME280;6452;41.572;23.732;2023-12-20T08:24:15;95483.41;;;4.81;nan
12777;BME280;6452;41.572;23.732;2023-12-20T08:26:42;95504.63;;;4.61;nan
12777;BME280;6452;41.572;23.732;2023-12-20T08:29:09;95481.69;;;4.55;nan
12777;BME280;6452;41.572;23.732;2023-12-20T08:31:36;95443.97;;;4.16;nan
12777;BME280;6452;41.572;23.732;2023-12-20T08:34:02;95475.88;;;4.40;nan
12777;BME280;6452;41.572;23.732;2023-12-20T08:36:29;95463.47;;;4.09;nan
12777;BME280;6452;41.572;23.732;2023-12-20T08:39:00;95466.47;;;4.12;nan
12777;BME280;6452;41.572;23.732;2023-12-20T08:41:27;95414.50;;;3.75;nan
12777;BME280;6452;41.572;23.732;2023-12-20T08:43:54;95459.72;;;4.29;nan
12777;BME280;6452;41.572;23.732;2023-12-20T08:46:20;95408.59;;;5.11;nan
12777;BME280;6452;41.572;23.732;2023-12-20T08:48:47;95415.13;;;5.09;nan
12777;BME280;6452;41.572;23.732;2023-12-20T08:51:14;95442.38;;;5.53;nan
12777;BME280;6452;41.572;23.732;2023-12-20T08:53:40;95439.38;;;5.67;nan
12777;BME280;6452;41.572;23.732;2023-12-20T08:56:07;95386.00;;;7.08;nan
12777;BME280;6452;41.572;23.732;2023-12-20T08:58:34;95415.44;;;6.77;nan
12777;BME280;6452;41.572;23.732;2023-12-20T09:01:02;95378.09;;;6.66;nan
12777;BME280;6452;41.572;23.732;2023-12-20T09:03:28;95406.00;;;6.92;nan
12777;BME280;6452;41.572;23.732;2023-12-20T09:05:55;95385.88;;;7.15;nan
12777;BME280;6452;41.572;23.732;2023-12-20T09:08:21;95412.59;;;7.71;nan
12777;BME280;6452;41.572;23.732;2023-12-20T09:10:48;95393.66;;;8.43;nan
12777;BME280;6452;41.572;23.732;2023-12-20T09:13:14;95373.44;;;8.42;nan
12777;BME280;6452;41.572;23.732;2023-12-20T09:15:41;95369.19;;;8.41;nan
12777;BME280;6452;41.572;23.732;2023-12-20T09:18:07;95384.34;;;8.57;nan
12777;BME280;6452;41.572;23.732;2023-12-20T09:20:33;95334.44;;;9.64;nan
12777;BME280;6452;41.572;23.732;2023-12-20T09:23:00;95370.22;;;10.17;nan
12777;BME280;6452;41.572;23.732;2023-12-20T09:25:26;95340.19;;;9.78;nan
12777;BME280;6452;41.572;23.732;2023-12-20T09:27:52;95363.63;;;10.03;nan
12777;BME280;6452;41.572;23.732;2023-12-20T09:30:19;95348.19;;;9.78;nan
12777;BME280;6452;41.572;23.732;2023-12-20T09:32:46;95337.78;;;9.98;nan
12777;BME280;6452;41.572;23.732;2023-12-20T09:35:13;95334.78;;;9.95;nan
12777;BME280;6452;41.572;23.732;2023-12-20T09:37:41;95335.84;;;10.64;nan
12777;BME280;6452;41.572;23.732;2023-12-20T09:40:12;95342.44;;;10.30;nan
12777;BME280;6452;41.572;23.732;2023-12-20T09:42:54;95288.59;;;10.60;nan
12777;BME280;6452;41.572;23.732;2023-12-20T09:45:25;95242.13;;;11.19;nan
12777;BME280;6452;41.572;23.732;2023-12-20T09:47:53;95234.47;;;10.86;nan
12777;BME280;6452;41.572;23.732;2023-12-20T09:50:20;95310.13;;;11.64;nan
12777;BME280;6452;41.572;23.732;2023-12-20T09:52:50;95261.38;;;11.79;nan
12777;BME280;6452;41.572;23.732;2023-12-20T09:55:21;95284.16;;;12.11;nan
12777;BME280;6452;41.572;23.732;2023-12-20T09:57:47;95255.63;;;12.22;nan
12777;BME280;6452;41.572;23.732;2023-12-20T10:00:14;95276.13;;;11.96;nan
12777;BME280;6452;41.572;23.732;2023-12-20T10:03:04;95265.31;;;10.77;nan
12777;BME280;6452;41.572;23.732;2023-12-20T10:05:33;95219.66;;;11.05;nan
12777;BME280;6452;41.572;23.732;2023-12-20T10:08:00;95247.72;;;11.18;nan
12777;BME280;6452;41.572;23.732;2023-12-20T10:10:27;95241.13;;;11.30;nan
12777;BME280;6452;41.572;23.732;2023-12-20T10:15:29;95220.84;;;13.18;nan
12777;BME280;6452;41.572;23.732;2023-12-20T10:17:55;95180.72;;;13.88;nan
12777;BME280;6452;41.572;23.732;2023-12-20T10:20:23;95204.44;;;14.49;nan
12777;BME280;6452;41.572;23.732;2023-12-20T10:22:50;95132.91;;;14.44;nan
12777;BME280;6452;41.572;23.732;2023-12-20T10:25:20;95195.34;;;15.07;nan
12777;BME280;6452;41.572;23.732;2023-12-20T10:27:46;95199.44;;;15.95;nan
12777;BME280;6452;41.572;23.732;2023-12-20T10:30:14;95150.63;;;15.88;nan
12777;BME280;6452;41.572;23.732;2023-12-20T10:32:40;95169.34;;;16.49;nan
12777;BME280;6452;41.572;23.732;2023-12-20T10:35:09;95124.22;;;16.60;nan
12777;BME280;6452;41.572;23.732;2023-12-20T10:37:38;95086.63;;;16.73;nan
12777;BME280;6452;41.572;23.732;2023-12-20T10:40:06;95141.09;;;17.39;nan
12777;BME280;6452;41.572;23.732;2023-12-20T10:42:33;95141.50;;;17.73;nan
12777;BME280;6452;41.572;23.732;2023-12-20T10:45:00;95136.06;;;18.01;nan
12777;BME280;6452;41.572;23.732;2023-12-20T10:47:27;95126.91;;;18.68;nan
12777;BME280;6452;41.572;23.732;2023-12-20T10:49:54;95091.06;;;19.07;nan
12777;BME280;6452;41.572;23.732;2023-12-20T10:52:23;95086.75;;;19.06;nan
12777;BME280;6452;41.572;23.732;2023-12-20T10:54:49;95119.09;;;19.77;nan
12777;BME280;6452;41.572;23.732;2023-12-20T10:57:18;95082.63;;;19.48;nan
12777;BME280;6452;41.572;23.732;2023-12-20T10:59:49;95083.78;;;19.91;nan
12777;BME280;6452;41.572;23.732;2023-12-20T11:02:18;95068.81;;;19.50;nan
12777;BME280;6452;41.572;23.732;2023-12-20T11:05:19;95104.78;;;19.28;nan
12777;BME280;6452;41.572;23.732;2023-12-20T11:07:56;95054.16;;;19.03;nan
12777;BME280;6452;41.572;23.732;2023-12-20T11:10:42;95092.59;;;18.24;nan
12777;BME280;6452;41.572;23.732;2023-12-20T11:13:37;95083.47;;;19.66;nan
12777;BME280;6452;41.572;23.732;2023-12-20T11:16:06;95081.91;;;19.26;nan
12777;BME280;6452;41.572;23.732;2023-12-20T11:18:34;95071.88;;;19.26;nan
12777;BME280;6452;41.572;23.732;2023-12-20T11:21:06;95066.13;;;19.76;nan
12777;BME280;6452;41.572;23.732;2023-12-20T11:23:33;95070.84;;;19.44;nan
12777;BME280;6452;41.572;23.732;2023-12-20T11:26:01;95066.88;;;21.47;nan
12777;BME280;6452;41.572;23.732;2023-12-20T11:28:27;95055.63;;;22.28;nan
12777;BME280;6452;41.572;23.732;2023-12-20T11:30:58;95045.28;;;21.38;nan
12777;BME280;6452;41.572;23.732;2023-12-20T11:33:37;95014.25;;;20.34;nan
12777;BME280;6452;41.572;23.732;2023-12-20T11:36:06;94970.00;;;21.98;nan
12777;BME280;6452;41.572;23.732;2023-12-20T11:38:58;95015.16;;;22.68;nan
12777;BME280;6452;41.572;23.732;2023-12-20T11:41:36;94991.19;;;21.83;nan
12777;BME280;6452;41.572;23.732;2023-12-20T11:44:07;95025.63;;;22.90;nan
12777;BME280;6452;41.572;23.732;2023-12-20T11:46:34;95037.84;;;24.22;nan
12777;BME280;6452;41.572;23.732;2023-12-20T11:49:00;95013.97;;;24.03;nan
12777;BME280;6452;41.572;23.732;2023-12-20T11:51:27;94986.44;;;22.91;nan
12777;BME280;6452;41.572;23.732;2023-12-20T11:53:54;95027.09;;;22.76;nan
12777;BME280;6452;41.572;23.732;2023-12-20T11:56:21;94973.00;;;22.62;nan
12777;BME280;6452;41.572;23.732;2023-12-20T11:58:47;94970.63;;;22.03;nan
12777;BME280;6452;41.572;23.732;2023-12-20T12:01:15;94982.91;;;22.34;nan
12777;BME280;6452;41.572;23.732;2023-12-20T12:03:41;94956.00;;;22.41;nan
12777;BME280;6452;41.572;23.732;2023-12-20T12:06:09;94964.47;;;23.09;nan
12777;BME280;6452;41.572;23.732;2023-12-20T12:08:35;94984.47;;;25.08;nan
12777;BME280;6452;41.572;23.732;2023-12-20T12:11:03;94994.38;;;24.69;nan
12777;BME280;6452;41.572;23.732;2023-12-20T12:13:30;94904.97;;;23.84;nan
12777;BME280;6452;41.572;23.732;2023-12-20T12:15:58;94977.09;;;25.08;nan
12777;BME280;6452;41.572;23.732;2023-12-20T12:18:25;94977.13;;;23.93;nan
12777;BME280;6452;41.572;23.732;2023-12-20T12:21:00;94948.06;;;25.00;nan
12777;BME280;6452;41.572;23.732;2023-12-20T12:23:26;94931.88;;;25.96;nan
12777;BME280;6452;41.572;23.732;2023-12-20T12:25:55;94962.00;;;23.80;nan
12777;BME280;6452;41.572;23.732;2023-12-20T12:28:21;94960.75;;;22.89;nan
12777;BME280;6452;41.572;23.732;2023-12-20T12:30:58;94943.03;;;25.18;nan
12777;BME280;6452;41.572;23.732;2023-12-20T12:33:25;94950.94;;;25.23;nan
12777;BME280;6452;41.572;23.732;2023-12-20T12:35:52;94904.88;;;25.72;nan
12777;BME280;6452;41.572;23.732;2023-12-20T12:38:24;94946.28;;;25.58;nan
12777;BME280;6452;41.572;23.732;2023-12-20T12:40:50;94927.75;;;23.27;nan
12777;BME280;6452;41.572;23.732;2023-12-20T12:43:19;94905.47;;;22.85;nan
12777;BME280;6452;41.572;23.732;2023-12-20T12:45:46;94923.63;;;22.11;nan
12777;BME280;6452;41.572;23.732;2023-12-20T12:48:13;94903.53;;;22.49;nan
12777;BME280;6452;41.572;23.732;2023-12-20T12:50:40;94902.72;;;21.58;nan
12777;BME280;6452;41.572;23.732;2023-12-20T12:53:06;94932.69;;;21.95;nan
12777;BME280;6452;41.572;23.732;2023-12-20T12:55:34;94881.94;;;21.41;nan
12777;BME280;6452;41.572;23.732;2023-12-20T12:58:01;94929.09;;;20.23;nan
12777;BME280;6452;41.572;23.732;2023-12-20T13:00:28;94901.66;;;19.95;nan
12777;BME280;6452;41.572;23.732;2023-12-20T13:02:55;94850.19;;;21.63;nan
12777;BME280;6452;41.572;23.732;2023-12-20T13:05:22;94914.69;;;21.36;nan
12777;BME280;6452;41.572;23.732;2023-12-20T13:07:49;94890.41;;;21.94;nan
12777;BME280;6452;41.572;23.732;2023-12-20T13:10:15;94912.09;;;21.61;nan
12777;BME280;6452;41.572;23.732;2023-12-20T13:12:43;94911.56;;;22.70;nan
12777;BME280;6452;41.572;23.732;2023-12-20T13:15:14;94868.91;;;21.14;nan
12777;BME280;6452;41.572;23.732;2023-12-20T13:17:41;94910.94;;;18.60;nan
12777;BME280;6452;41.572;23.732;2023-12-20T13:20:09;94903.69;;;18.29;nan
12777;BME280;6452;41.572;23.732;2023-12-20T13:22:37;94911.63;;;17.14;nan
12777;BME280;6452;41.572;23.732;2023-12-20T13:25:07;94864.09;;;17.10;nan
12777;BME280;6452;41.572;23.732;2023-12-20T13:27:33;94912.22;;;16.75;nan
12777;BME280;6452;41.572;23.732;2023-12-20T13:30:00;94876.16;;;17.12;nan
12777;BME280;6452;41.572;23.732;2023-12-20T13:32:27;94858.66;;;17.46;nan